Time;durP1;ratioP1;P1;durP2;ratioP2;P2;SDS_P1;SDS_P2;PMS_P1;PMS_P2;Temp;Humidity;BMP_temperature;BMP_pressure;BME280_temperature;BME280_humidity;BME280_pressure;Samples;Min_cycle;Max_cycle;Signal;HPM_P1;HPM_P2
2022/11/27 00:00:24;;;;;;;9.20;4.60;;;8.40;99.90;;;;;;4897895;29;20439;-68
2022/11/27 00:02:49;;;;;;;10.23;3.10;;;8.30;99.90;;;;;;4897531;29;20239;-67
2022/11/27 00:05:15;;;;;;;8.90;3.50;;;8.30;99.90;;;;;;4897370;29;20176;-67
2022/11/27 00:07:40;;;;;;;15.60;3.97;;;8.30;99.90;;;;;;4897737;29;20185;-67
2022/11/27 00:10:07;;;;;;;11.30;4.30;;;8.30;99.90;;;;;;4897848;29;20176;-68
2022/11/27 00:12:32;;;;;;;5.00;2.90;;;8.30;99.90;;;;;;4897692;29;20192;-68
2022/11/27 00:14:58;;;;;;;6.53;4.00;;;8.30;99.90;;;;;;4896103;29;20476;-68
2022/11/27 00:17:23;;;;;;;4.63;3.33;;;8.20;99.90;;;;;;4897601;29;20216;-68
2022/11/27 00:19:49;;;;;;;7.10;4.10;;;8.20;99.90;;;;;;4897583;29;20632;-68
2022/11/27 00:22:15;;;;;;;14.10;4.97;;;8.20;99.90;;;;;;4897494;29;20180;-67
2022/11/27 00:24:42;;;;;;;6.90;3.37;;;8.10;99.90;;;;;;4897570;29;20261;-67
2022/11/27 00:27:08;;;;;;;12.43;3.23;;;8.20;99.90;;;;;;4897321;29;20216;-68
2022/11/27 00:29:33;;;;;;;11.87;3.80;;;8.10;99.90;;;;;;4896667;29;20976;-70
2022/11/27 00:31:59;;;;;;;6.33;3.40;;;8.10;99.90;;;;;;4897362;29;20224;-71
2022/11/27 00:34:25;;;;;;;8.03;3.70;;;8.00;99.90;;;;;;4896261;29;20212;-70
2022/11/27 00:36:51;;;;;;;7.07;4.17;;;8.00;99.90;;;;;;4897536;29;20565;-71
2022/11/27 00:39:16;;;;;;;5.40;3.73;;;7.90;99.90;;;;;;4897351;29;20437;-71
2022/11/27 00:41:42;;;;;;;5.10;3.10;;;7.90;99.90;;;;;;4897316;29;20530;-70
2022/11/27 00:44:07;;;;;;;8.23;4.00;;;7.80;99.90;;;;;;4897515;29;20617;-70
2022/11/27 00:46:34;;;;;;;8.93;4.17;;;7.70;99.90;;;;;;4897153;29;20615;-82
2022/11/27 00:49:02;;;;;;;7.70;4.00;;;7.70;99.90;;;;;;4879844;29;20664;-70
2022/11/27 00:51:28;;;;;;;7.27;3.47;;;7.70;99.90;;;;;;4896624;29;20999;-70
2022/11/27 00:53:54;;;;;;;7.87;4.00;;;7.70;99.90;;;;;;4896696;29;20496;-70
2022/11/27 00:56:23;;;;;;;9.60;4.60;;;7.70;99.90;;;;;;4896733;29;20917;-70
2022/11/27 00:58:51;;;;;;;10.17;3.23;;;7.60;99.90;;;;;;4896967;29;20449;-69
2022/11/27 01:01:19;;;;;;;8.20;4.37;;;7.60;99.90;;;;;;4896832;29;20519;-70
2022/11/27 01:03:46;;;;;;;6.27;3.90;;;7.60;99.90;;;;;;4896754;29;20437;-70
2022/11/27 01:06:12;;;;;;;4.50;3.03;;;7.70;99.90;;;;;;4896843;29;20432;-70
2022/11/27 01:08:38;;;;;;;10.60;4.97;;;7.70;99.90;;;;;;4896580;29;20802;-71
2022/11/27 01:11:03;;;;;;;6.60;4.10;;;7.80;99.90;;;;;;4896819;29;20443;-70
2022/11/27 01:13:32;;;;;;;6.37;3.67;;;7.80;99.90;;;;;;4896589;29;20956;-70
2022/11/27 01:16:04;;;;;;;8.40;3.00;;;7.70;99.90;;;;;;4896546;29;20196;-70
2022/11/27 01:18:32;;;;;;;6.10;3.70;;;7.80;99.90;;;;;;4896597;29;20750;-70
2022/11/27 01:20:57;;;;;;;5.80;3.60;;;7.70;99.90;;;;;;4896560;29;20432;-69
2022/11/27 01:23:23;;;;;;;5.63;3.53;;;7.60;99.90;;;;;;4896648;29;20433;-71
2022/11/27 01:25:49;;;;;;;6.83;3.50;;;7.70;99.90;;;;;;4896474;29;20240;-72
2022/11/27 01:28:15;;;;;;;4.03;2.90;;;7.70;99.90;;;;;;4896499;29;20280;-72
2022/11/27 01:30:41;;;;;;;3.90;3.30;;;7.70;99.90;;;;;;4896224;29;20291;-70
2022/11/27 05:31:20;;;;;;;8.40;3.93;;;7.80;99.90;;;;;;5473185;23;20490;-79
2022/11/27 05:33:45;;;;;;;8.03;4.90;;;7.90;99.90;;;;;;4916714;29;20479;-79
2022/11/27 05:36:11;;;;;;;6.53;4.57;;;7.90;99.90;;;;;;4900170;29;20187;-79
2022/11/27 05:38:36;;;;;;;10.37;5.10;;;7.90;99.90;;;;;;4916718;29;20187;-78
2022/11/27 05:41:02;;;;;;;7.63;4.60;;;7.90;99.90;;;;;;4916659;29;20258;-76
2022/11/27 05:43:28;;;;;;;10.23;4.73;;;8.00;99.90;;;;;;4916697;29;20180;-77
2022/11/27 05:45:53;;;;;;;7.83;4.63;;;8.00;99.90;;;;;;4916888;29;20180;-77
2022/11/27 05:48:19;;;;;;;7.10;4.77;;;8.00;99.90;;;;;;4916766;29;20184;-77
2022/11/27 05:50:45;;;;;;;8.37;4.80;;;7.90;99.90;;;;;;4916669;29;20205;-77
2022/11/27 05:53:10;;;;;;;10.80;5.30;;;7.90;99.90;;;;;;4916786;29;20184;-76
2022/11/27 05:55:36;;;;;;;10.90;5.20;;;8.00;99.90;;;;;;4916514;29;20486;-79
2022/11/27 05:58:01;;;;;;;9.93;4.67;;;8.00;99.90;;;;;;4916638;29;20176;-77
2022/11/27 06:00:27;;;;;;;8.80;5.60;;;8.00;99.90;;;;;;4916539;29;20184;-77
2022/11/27 06:02:53;;;;;;;5.57;4.60;;;7.90;99.90;;;;;;4919239;29;20183;-76
2022/11/27 06:05:19;;;;;;;8.47;4.70;;;7.90;99.90;;;;;;4920200;29;20188;-74
2022/11/27 06:07:44;;;;;;;11.40;5.17;;;7.90;99.90;;;;;;4920287;29;20940;-74
2022/11/27 06:10:10;;;;;;;6.87;5.67;;;7.90;99.90;;;;;;4920145;29;20180;-74
2022/11/27 06:12:36;;;;;;;8.50;5.07;;;7.90;99.90;;;;;;4920070;29;20239;-77
2022/11/27 06:15:02;;;;;;;9.07;5.97;;;8.00;99.90;;;;;;4920056;29;20573;-78
2022/11/27 06:17:27;;;;;;;11.23;5.10;;;8.00;99.90;;;;;;4919999;29;20172;-77
2022/11/27 06:19:53;;;;;;;12.13;5.27;;;8.00;99.90;;;;;;4920124;29;20953;-75
2022/11/27 06:22:18;;;;;;;8.33;5.47;;;8.10;99.90;;;;;;4919966;29;20175;-81
2022/11/27 06:24:44;;;;;;;15.50;5.20;;;8.10;99.90;;;;;;4920192;29;20266;-78
2022/11/27 06:27:09;;;;;;;8.80;4.70;;;8.20;99.90;;;;;;4919903;29;20183;-76
2022/11/27 06:29:36;;;;;;;11.27;4.77;;;8.10;99.90;;;;;;4919732;29;20180;-77
2022/11/27 06:32:03;;;;;;;7.97;4.73;;;8.10;99.90;;;;;;4918746;29;20240;-77
2022/11/27 06:34:29;;;;;;;10.40;4.70;;;8.10;99.90;;;;;;4918307;29;20561;-73
2022/11/27 06:36:54;;;;;;;9.50;5.40;;;8.10;99.90;;;;;;4918806;29;20435;-73
2022/11/27 06:39:20;;;;;;;7.97;4.30;;;8.20;99.90;;;;;;4918611;29;20479;-74
2022/11/27 06:41:45;;;;;;;4.60;4.00;;;8.40;99.90;;;;;;4918348;29;20184;-74
2022/11/27 06:44:11;;;;;;;5.73;4.90;;;8.40;99.90;;;;;;4901448;29;20267;-73
2022/11/27 06:46:36;;;;;;;7.77;4.70;;;8.40;99.90;;;;;;4917979;29;20203;-73
2022/11/27 06:49:03;;;;;;;8.77;3.80;;;8.50;99.90;;;;;;4918173;29;20188;-73
2022/11/27 06:51:30;;;;;;;8.33;4.10;;;8.50;99.90;;;;;;4918372;29;20184;-75
2022/11/27 06:53:57;;;;;;;5.60;4.10;;;8.50;99.90;;;;;;4918376;29;20243;-76
2022/11/27 06:56:25;;;;;;;9.70;4.53;;;8.50;99.90;;;;;;4918228;29;20428;-76
2022/11/27 06:58:52;;;;;;;7.70;4.93;;;8.40;99.90;;;;;;4918112;29;20490;-75
2022/11/27 07:01:19;;;;;;;7.07;4.63;;;8.50;99.90;;;;;;4918062;29;20467;-74
2022/11/27 07:03:45;;;;;;;8.33;4.40;;;8.60;99.90;;;;;;4917511;29;20832;-72
2022/11/27 07:06:12;;;;;;;9.00;5.00;;;8.60;99.90;;;;;;4917806;29;20470;-73
2022/11/27 07:08:38;;;;;;;7.43;4.67;;;8.60;99.90;;;;;;4915842;29;20187;-73
2022/11/27 07:11:17;;;;;;;10.33;5.23;;;8.60;99.90;;;;;;4916930;29;20432;-74
2022/11/27 07:13:43;;;;;;;9.87;4.50;;;8.70;99.90;;;;;;4917428;29;20242;-75
2022/11/27 07:16:10;;;;;;;8.53;4.60;;;8.70;99.90;;;;;;4917765;29;20515;-74
2022/11/27 07:18:39;;;;;;;8.27;4.90;;;8.70;99.90;;;;;;4917699;29;20443;-72
2022/11/27 07:21:04;;;;;;;7.30;4.40;;;8.80;99.90;;;;;;4917775;29;20435;-74
2022/11/27 07:23:30;;;;;;;7.30;4.10;;;8.80;99.90;;;;;;4917450;29;20523;-74
2022/11/27 07:25:56;;;;;;;7.03;4.73;;;8.80;99.90;;;;;;4917510;29;20206;-74
2022/11/27 07:28:21;;;;;;;8.80;4.80;;;8.80;99.90;;;;;;4917633;29;20172;-75
2022/11/27 07:30:54;;;;;;;7.27;4.17;;;8.80;99.90;;;;;;4916747;29;20235;-75
2022/11/27 07:33:20;;;;;;;9.00;4.20;;;8.80;99.90;;;;;;4917482;29;20542;-76
2022/11/27 07:35:46;;;;;;;7.80;4.97;;;8.90;99.90;;;;;;4916334;29;20432;-76
2022/11/27 07:38:11;;;;;;;11.37;4.60;;;9.00;99.90;;;;;;4917385;29;20436;-76
2022/11/27 07:40:37;;;;;;;10.40;6.30;;;8.90;99.90;;;;;;4917188;29;20316;-76
2022/11/27 07:43:03;;;;;;;6.50;4.80;;;8.90;99.90;;;;;;4917405;29;20180;-72
2022/11/27 07:45:28;;;;;;;8.77;4.97;;;8.80;99.90;;;;;;4916903;29;20447;-73
2022/11/27 07:47:54;;;;;;;7.57;5.23;;;8.90;99.90;;;;;;4917368;29;20199;-72
2022/11/27 07:50:19;;;;;;;10.33;4.93;;;9.00;99.90;;;;;;4917353;29;20616;-72
2022/11/27 07:52:45;;;;;;;8.87;5.37;;;9.00;99.90;;;;;;4917178;29;20188;-72
2022/11/27 07:55:11;;;;;;;15.83;6.93;;;9.00;99.90;;;;;;4917020;29;20690;-72
2022/11/27 07:57:36;;;;;;;7.77;4.70;;;9.00;99.90;;;;;;4917207;29;20195;-71
2022/11/27 08:00:03;;;;;;;10.20;5.50;;;9.10;99.90;;;;;;4917116;29;20183;-72
2022/11/27 08:02:29;;;;;;;9.90;4.50;;;9.10;99.90;;;;;;4916764;29;20184;-72
2022/11/27 08:04:54;;;;;;;5.47;4.63;;;9.10;99.90;;;;;;4917044;29;20931;-72
2022/11/27 08:07:24;;;;;;;6.30;4.30;;;8.90;99.90;;;;;;4916853;29;20176;-74
2022/11/27 08:09:50;;;;;;;10.50;5.23;;;9.00;99.90;;;;;;4916930;29;20351;-73
2022/11/27 08:12:16;;;;;;;13.67;6.17;;;9.00;99.90;;;;;;4916883;29;20522;-72
2022/11/27 08:14:41;;;;;;;7.07;4.63;;;9.00;99.90;;;;;;4916785;29;20219;-73
2022/11/27 08:17:08;;;;;;;11.20;5.00;;;9.10;99.90;;;;;;4916566;29;20628;-73
2022/11/27 08:19:33;;;;;;;14.77;5.47;;;9.00;99.90;;;;;;4916631;29;20649;-73
2022/11/27 08:21:59;;;;;;;7.70;4.83;;;9.10;99.90;;;;;;4916558;29;20545;-73
2022/11/27 08:24:24;;;;;;;6.13;5.20;;;8.90;99.90;;;;;;4913984;29;20323;-74
2022/11/27 08:26:51;;;;;;;5.70;4.30;;;8.90;99.90;;;;;;4907297;29;20648;-75
2022/11/27 08:29:16;;;;;;;9.87;5.83;;;9.00;99.90;;;;;;4907171;29;20199;-75
2022/11/27 08:31:42;;;;;;;6.80;4.37;;;8.90;99.90;;;;;;4906263;29;20460;-75
2022/11/27 08:34:07;;;;;;;6.97;4.07;;;9.00;99.90;;;;;;4905018;29;20208;-75
2022/11/27 08:36:33;;;;;;;9.80;4.57;;;9.00;99.90;;;;;;4907958;29;20424;-72
2022/11/27 08:38:58;;;;;;;9.77;5.80;;;9.00;99.90;;;;;;4905954;29;20184;-75
2022/11/27 08:41:24;;;;;;;7.67;4.53;;;9.10;99.90;;;;;;4907412;29;20199;-75
2022/11/27 08:43:49;;;;;;;7.10;4.73;;;9.00;99.90;;;;;;4905881;29;20631;-74
2022/11/27 08:46:15;;;;;;;6.90;4.27;;;9.10;99.90;;;;;;4906267;29;20187;-77
2022/11/27 08:48:40;;;;;;;10.53;4.63;;;9.20;99.90;;;;;;4907219;29;20182;-78
2022/11/27 08:51:12;;;;;;;7.17;4.30;;;9.30;99.90;;;;;;4905299;29;20656;-73
2022/11/27 08:53:38;;;;;;;12.47;5.07;;;9.40;99.90;;;;;;4915632;29;20176;-71
2022/11/27 08:56:10;;;;;;;4.50;4.10;;;9.30;99.90;;;;;;4905567;29;20437;-72
2022/11/27 08:58:35;;;;;;;9.23;4.40;;;9.40;99.90;;;;;;4905430;29;20947;-72
2022/11/27 09:01:13;;;;;;;7.43;4.27;;;9.40;99.90;;;;;;4907120;29;20578;-72
2022/11/27 09:03:39;;;;;;;4.13;3.73;;;9.50;99.90;;;;;;4904290;29;20191;-73
2022/11/27 09:06:10;;;;;;;7.33;4.17;;;9.50;99.90;;;;;;4906968;29;20501;-73
2022/11/27 09:08:36;;;;;;;8.63;4.20;;;9.50;99.90;;;;;;4906447;29;20222;-74
2022/11/27 09:11:03;;;;;;;5.57;3.70;;;9.60;99.90;;;;;;4905207;29;20433;-77
2022/11/27 09:13:29;;;;;;;4.53;3.60;;;9.70;99.90;;;;;;4906091;29;20467;-80
2022/11/27 09:15:56;;;;;;;7.53;3.30;;;9.70;99.90;;;;;;4906381;29;20436;-73
2022/11/27 09:18:22;;;;;;;5.43;4.07;;;9.70;99.90;;;;;;4905051;29;20184;-73
2022/11/27 09:21:00;;;;;;;7.80;4.60;;;9.70;99.90;;;;;;4906484;29;20451;-73
2022/11/27 09:23:26;;;;;;;5.78;3.88;;;9.90;99.90;;;;;;4903769;29;20446;-72
2022/11/27 09:25:52;;;;;;;5.93;4.53;;;9.90;99.90;;;;;;4904642;29;20640;-74
2022/11/27 09:28:17;;;;;;;8.43;3.90;;;10.00;99.90;;;;;;4904548;29;20184;-72
2022/11/27 09:30:43;;;;;;;5.30;4.07;;;10.00;99.90;;;;;;4901695;29;20240;-73
2022/11/27 09:33:09;;;;;;;5.80;3.50;;;10.00;99.90;;;;;;4889126;29;20173;-71
2022/11/27 09:35:36;;;;;;;7.00;4.13;;;9.90;99.90;;;;;;4892265;29;20219;-84
2022/11/27 09:38:02;;;;;;;5.80;3.03;;;10.00;99.90;;;;;;4893086;29;20180;-82
2022/11/27 09:40:28;;;;;;;10.43;3.77;;;10.10;99.90;;;;;;4893843;29;20437;-69
2022/11/27 09:42:58;;;;;;;7.07;3.83;;;10.10;99.90;;;;;;4894251;29;20183;-69
2022/11/27 09:45:26;;;;;;;7.00;3.57;;;10.10;99.90;;;;;;4891592;29;20192;-69
2022/11/27 09:48:03;;;;;;;3.50;3.20;;;10.20;99.90;;;;;;4896111;29;20433;-69
2022/11/27 09:50:33;;;;;;;4.80;3.40;;;10.20;99.90;;;;;;4889226;29;20936;-71
2022/11/27 09:53:19;;;;;;;7.90;4.03;;;10.20;99.90;;;;;;4894519;29;20536;-70
2022/11/27 09:55:48;;;;;;;6.63;3.33;;;10.30;99.90;;;;;;4889511;29;20491;-70
2022/11/27 09:58:18;;;;;;;4.40;3.17;;;10.30;99.90;;;;;;4896400;29;20477;-72
2022/11/27 10:00:45;;;;;;;5.00;4.50;;;10.40;99.90;;;;;;4894653;29;20453;-72
2022/11/27 10:03:20;;;;;;;4.70;3.17;;;10.40;99.90;;;;;;4896089;29;20445;-73
2022/11/27 10:06:05;;;;;;;5.93;3.23;;;10.40;99.90;;;;;;4896044;29;21259;-73
2022/11/27 10:09:07;;;;;;;5.53;3.70;;;10.40;99.90;;;;;;4896410;29;20429;-73
2022/11/27 10:11:43;;;;;;;10.00;3.30;;;10.40;99.90;;;;;;4897752;29;20428;-73
2022/11/27 10:14:33;;;;;;;4.43;3.20;;;10.40;99.90;;;;;;4896853;29;20785;-72
2022/11/27 10:17:04;;;;;;;4.00;3.23;;;10.40;99.90;;;;;;4895547;29;20524;-73
2022/11/27 10:20:01;;;;;;;3.70;2.90;;;10.40;99.90;;;;;;4897412;29;20452;-72
2022/11/27 10:22:53;;;;;;;7.83;3.87;;;10.40;99.90;;;;;;4892172;29;20848;-73
2022/11/27 10:25:36;;;;;;;5.20;3.13;;;10.50;99.90;;;;;;4895314;29;20561;-72
2022/11/27 10:28:07;;;;;;;3.40;2.80;;;10.50;99.90;;;;;;4887119;29;20815;-72
2022/11/27 10:30:38;;;;;;;5.30;3.90;;;10.50;99.90;;;;;;4886720;29;20436;-73
2022/11/27 10:33:16;;;;;;;4.90;3.00;;;10.60;99.90;;;;;;4884140;29;20948;-72
2022/11/27 10:35:42;;;;;;;7.43;3.03;;;10.60;99.90;;;;;;4880342;29;20484;-72
2022/11/27 10:38:18;;;;;;;5.10;2.30;;;10.60;99.90;;;;;;4880640;29;20481;-73
2022/11/27 10:41:05;;;;;;;6.70;3.10;;;10.60;99.90;;;;;;4880172;29;20479;-73
2022/11/27 10:43:31;;;;;;;7.00;2.80;;;10.70;99.90;;;;;;4880962;29;20425;-72
2022/11/27 10:46:01;;;;;;;5.43;2.50;;;10.70;99.90;;;;;;4880928;29;20518;-72
2022/11/27 10:48:28;;;;;;;4.00;3.27;;;10.80;99.90;;;;;;4880135;29;20649;-72
2022/11/27 10:50:54;;;;;;;5.13;3.27;;;10.80;99.90;;;;;;4880934;29;20441;-73
2022/11/27 10:53:34;;;;;;;3.30;2.80;;;10.90;99.90;;;;;;4880187;29;20536;-73
2022/11/27 10:56:15;;;;;;;5.60;3.90;;;10.90;99.90;;;;;;4889410;29;20456;-72
2022/11/27 10:59:00;;;;;;;4.60;2.70;;;11.00;99.90;;;;;;4874907;29;20492;-73
2022/11/27 11:01:39;;;;;;;4.00;2.50;;;11.00;99.90;;;;;;4894104;29;20457;-73
2022/11/27 11:04:09;;;;;;;4.83;2.77;;;11.00;99.90;;;;;;4894476;29;20795;-72
2022/11/27 11:06:42;;;;;;;5.00;2.40;;;11.00;99.90;;;;;;4897749;29;20441;-72
2022/11/27 11:09:21;;;;;;;2.83;2.10;;;11.10;99.90;;;;;;4897580;29;20421;-72
2022/11/27 11:11:47;;;;;;;3.80;3.23;;;11.10;99.90;;;;;;4894406;29;20473;-71
2022/11/27 11:14:25;;;;;;;4.50;2.57;;;11.10;99.90;;;;;;4895604;29;20503;-72
2022/11/27 11:16:52;;;;;;;11.30;3.20;;;11.10;99.90;;;;;;4879791;29;20527;-79
2022/11/27 11:19:32;;;;;;;3.77;2.50;;;11.10;99.90;;;;;;4893101;29;20444;-78
2022/11/27 11:22:03;;;;;;;3.30;2.43;;;11.10;99.90;;;;;;4895376;29;20452;-78
2022/11/27 11:24:30;;;;;;;6.67;2.90;;;11.30;99.90;;;;;;4886487;29;20448;-80
2022/11/27 11:27:00;;;;;;;5.40;2.80;;;11.30;99.90;;;;;;4891536;29;20533;-74
2022/11/27 11:29:45;;;;;;;5.07;2.67;;;11.30;99.90;;;;;;4892017;29;20437;-70
2022/11/27 11:32:20;;;;;;;5.17;3.07;;;11.40;99.90;;;;;;4909809;29;20989;-71
2022/11/27 11:34:47;;;;;;;4.83;2.83;;;11.30;99.90;;;;;;4906516;29;20570;-76
2022/11/27 11:37:21;;;;;;;3.37;2.37;;;11.40;99.90;;;;;;4909793;29;20428;-75
2022/11/27 11:39:57;;;;;;;5.10;2.70;;;11.40;99.90;;;;;;4908576;29;20437;-75
2022/11/27 11:42:32;;;;;;;7.37;2.63;;;11.40;99.90;;;;;;4911294;29;20846;-75
2022/11/27 11:45:15;;;;;;;4.10;2.50;;;11.50;99.90;;;;;;4915613;29;20512;-77
2022/11/27 11:47:45;;;;;;;3.30;2.20;;;11.40;99.90;;;;;;4908606;29;20443;-76
2022/11/27 11:50:13;;;;;;;4.00;2.60;;;11.40;99.90;;;;;;4906769;29;20440;-72
2022/11/27 11:53:00;;;;;;;5.20;2.27;;;11.30;99.90;;;;;;4897558;29;20923;-71
2022/11/27 11:55:34;;;;;;;3.33;3.03;;;11.40;99.90;;;;;;4910462;29;20863;-71
2022/11/27 11:58:33;;;;;;;3.90;2.60;;;11.30;99.90;;;;;;4908232;29;20424;-71
2022/11/27 12:01:21;;;;;;;4.67;2.90;;;11.40;99.90;;;;;;4907754;29;20492;-78
2022/11/27 12:04:37;;;;;;;3.53;2.40;;;11.40;99.90;;;;;;4908377;29;20514;-78
2022/11/27 12:07:45;;;;;;;4.37;2.70;;;11.40;99.90;;;;;;4857679;29;20434;-72
2022/11/27 12:10:26;;;;;;;9.40;3.00;;;11.50;99.90;;;;;;4891523;29;20995;-71
2022/11/27 12:13:19;;;;;;;2.33;1.83;;;11.50;99.90;;;;;;4906164;29;20448;-71
2022/11/27 12:16:06;;;;;;;3.47;2.27;;;11.40;99.90;;;;;;4891004;29;20574;-71
2022/11/27 12:18:42;;;;;;;3.97;2.20;;;11.40;99.90;;;;;;4916663;29;20508;-71
2022/11/27 12:21:22;;;;;;;4.07;2.20;;;11.50;99.90;;;;;;5069558;28;20543;-70
2022/11/27 12:24:31;;;;;;;3.13;2.60;;;11.60;99.90;;;;;;5069259;28;20432;-70
2022/11/27 12:27:25;;;;;;;6.82;2.60;;;11.60;99.90;;;;;;5067036;28;20682;-72
2022/11/27 12:30:00;;;;;;;5.13;2.30;;;11.70;99.90;;;;;;5069302;28;20230;-72
2022/11/27 12:32:53;;;;;;;3.90;2.70;;;11.70;99.70;;;;;;5067865;28;20425;-72
2022/11/27 12:35:32;;;;;;;5.33;2.40;;;11.70;99.90;;;;;;5068711;28;20432;-72
2022/11/27 12:38:09;;;;;;;2.83;2.23;;;11.60;99.90;;;;;;5068756;28;20424;-72
2022/11/27 12:41:03;;;;;;;5.93;2.63;;;11.70;99.90;;;;;;5067617;28;21018;-74
2022/11/27 12:43:35;;;;;;;3.73;2.40;;;11.60;99.90;;;;;;5068851;28;20416;-74
2022/11/27 12:46:13;;;;;;;3.53;2.27;;;11.60;99.90;;;;;;5068984;28;20792;-74
2022/11/27 12:49:03;;;;;;;2.60;2.10;;;11.60;99.90;;;;;;5068831;28;20488;-74
2022/11/27 12:52:08;;;;;;;5.10;2.30;;;11.60;99.80;;;;;;5068819;28;20448;-74
2022/11/27 12:54:51;;;;;;;3.53;2.53;;;11.70;99.90;;;;;;5068845;28;20419;-75
2022/11/27 12:57:24;;;;;;;4.13;2.60;;;11.70;99.90;;;;;;5068028;28;20471;-83
2022/11/27 13:00:04;;;;;;;4.27;2.47;;;11.60;99.90;;;;;;5067082;28;20594;-78
2022/11/27 13:02:54;;;;;;;2.43;2.20;;;11.70;99.90;;;;;;5066825;28;20420;-91
2022/11/27 13:05:27;;;;;;;3.80;2.40;;;11.80;99.90;;;;;;5065253;28;20479;-85
2022/11/27 13:08:10;;;;;;;2.80;2.40;;;11.80;99.90;;;;;;5068928;28;20588;-80
2022/11/27 13:10:58;;;;;;;11.40;3.70;;;11.90;99.90;;;;;;5069185;28;20440;-81
2022/11/27 13:13:52;;;;;;;3.63;2.17;;;11.90;99.90;;;;;;5067706;28;20781;-83
2022/11/27 13:16:33;;;;;;;5.60;3.67;;;11.80;99.90;;;;;;5059454;28;20485;-78
2022/11/27 13:19:04;;;;;;;5.13;4.00;;;11.80;99.90;;;;;;5066675;28;20429;-84
2022/11/27 13:21:33;;;;;;;4.80;4.37;;;11.70;99.90;;;;;;5065460;28;20471;-77
2022/11/27 13:24:00;;;;;;;5.27;2.43;;;11.60;99.90;;;;;;5067613;28;20433;-80
2022/11/27 13:26:34;;;;;;;4.17;2.63;;;11.50;99.90;;;;;;5067369;28;20895;-81
2022/11/27 13:29:12;;;;;;;4.53;2.73;;;11.50;99.90;;;;;;5068043;28;20785;-79
2022/11/27 13:31:38;;;;;;;3.03;2.20;;;11.40;99.90;;;;;;5058826;28;20523;-79
2022/11/27 13:34:25;;;;;;;4.07;2.30;;;11.50;99.90;;;;;;5054482;28;20519;-85
2022/11/27 13:37:01;;;;;;;3.87;2.33;;;11.50;99.90;;;;;;5052188;28;20999;-79
2022/11/27 13:39:32;;;;;;;2.90;2.40;;;11.40;99.90;;;;;;5051409;28;20461;-79
2022/11/27 13:42:21;;;;;;;3.57;1.63;;;11.40;99.90;;;;;;5053942;28;20438;-77
2022/11/27 13:44:57;;;;;;;3.10;2.30;;;11.40;99.90;;;;;;5051424;28;20460;-80
2022/11/27 13:47:27;;;;;;;5.50;2.30;;;11.50;99.90;;;;;;5053714;28;20421;-76
2022/11/27 13:50:14;;;;;;;4.73;2.37;;;11.50;99.90;;;;;;5055106;28;20533;-86
2022/11/27 13:53:09;;;;;;;3.60;1.83;;;11.50;99.90;;;;;;5054351;28;20496;-85
2022/11/27 13:55:50;;;;;;;5.67;3.20;;;11.50;99.90;;;;;;5048172;28;20516;-86
2022/11/27 13:58:33;;;;;;;6.17;2.57;;;11.50;99.90;;;;;;5054196;28;20433;-86
2022/11/27 14:01:12;;;;;;;4.57;2.57;;;11.60;99.90;;;;;;5054023;28;20472;-77
2022/11/27 14:03:38;;;;;;;18.13;11.60;;;11.60;99.90;;;;;;5053622;28;20433;-79
2022/11/27 14:06:16;;;;;;;15.53;11.10;;;11.60;99.90;;;;;;5054022;28;20482;-70
2022/11/27 14:08:51;;;;;;;4.10;3.50;;;11.60;99.90;;;;;;5051553;28;20463;-75
2022/11/27 14:11:46;;;;;;;4.60;2.43;;;11.60;99.70;;;;;;5054235;28;20429;-81
2022/11/27 14:14:19;;;;;;;4.17;2.40;;;11.60;99.70;;;;;;5054213;28;20482;-75
2022/11/27 14:17:03;;;;;;;6.80;2.23;;;11.60;98.90;;;;;;5054111;28;20444;-80
2022/11/27 14:19:40;;;;;;;3.43;2.30;;;11.50;99.00;;;;;;5053972;28;20477;-82
2022/11/27 14:22:48;;;;;;;3.17;2.10;;;11.60;98.90;;;;;;5053932;28;20457;-74
2022/11/27 14:25:27;;;;;;;3.57;2.60;;;11.60;99.10;;;;;;5048193;28;20502;-71
2022/11/27 14:27:59;;;;;;;2.77;2.30;;;11.60;99.60;;;;;;5052765;28;20422;-72
2022/11/27 14:30:48;;;;;;;3.93;2.57;;;11.60;98.60;;;;;;5052680;28;20430;-71
2022/11/27 14:33:22;;;;;;;5.63;5.13;;;11.60;98.50;;;;;;5052931;28;20418;-70
2022/11/27 14:35:53;;;;;;;10.60;7.47;;;11.70;98.60;;;;;;5053551;28;20730;-70
2022/11/27 14:38:19;;;;;;;4.60;4.00;;;11.70;98.60;;;;;;5051132;28;20506;-68
2022/11/27 14:40:45;;;;;;;4.50;2.80;;;11.60;98.20;;;;;;5053239;28;20897;-69
2022/11/27 14:43:22;;;;;;;4.03;2.63;;;11.60;98.40;;;;;;5052361;28;20175;-68
2022/11/27 14:45:54;;;;;;;3.70;3.30;;;11.60;98.50;;;;;;5053205;28;20438;-68
2022/11/27 14:48:26;;;;;;;5.20;2.77;;;11.50;99.20;;;;;;5052703;28;20425;-69
2022/11/27 14:50:54;;;;;;;4.60;3.53;;;11.40;99.30;;;;;;5050071;28;20928;-69
2022/11/27 14:53:22;;;;;;;4.70;2.57;;;11.40;99.50;;;;;;5052802;28;20434;-72
2022/11/27 14:55:51;;;;;;;5.50;3.07;;;11.40;99.70;;;;;;5052556;28;20429;-70
2022/11/27 14:58:23;;;;;;;8.07;2.83;;;11.40;99.50;;;;;;5052895;28;20473;-71
2022/11/27 15:00:56;;;;;;;4.87;2.73;;;11.40;99.70;;;;;;5051159;28;20472;-70
2022/11/27 15:03:24;;;;;;;2.87;2.57;;;11.40;99.90;;;;;;5050111;28;20426;-69
2022/11/27 15:05:57;;;;;;;3.37;2.70;;;11.40;99.90;;;;;;5052798;28;20437;-69
2022/11/27 15:08:23;;;;;;;4.97;3.10;;;11.40;99.90;;;;;;5048903;28;20833;-70
2022/11/27 15:10:53;;;;;;;6.60;2.77;;;11.30;99.60;;;;;;5052701;28;20445;-70
2022/11/27 15:13:30;;;;;;;3.87;3.17;;;11.30;99.80;;;;;;5052409;28;20433;-69
2022/11/27 15:16:12;;;;;;;4.13;2.67;;;11.20;99.90;;;;;;5052582;28;20425;-71
2022/11/27 15:18:39;;;;;;;7.73;2.77;;;11.20;99.90;;;;;;5051819;28;20429;-68
2022/11/27 15:21:11;;;;;;;4.63;3.00;;;11.20;99.90;;;;;;5052266;28;20969;-68
2022/11/27 15:23:42;;;;;;;5.13;3.00;;;11.10;99.90;;;;;;5052372;28;20422;-68
2022/11/27 15:26:12;;;;;;;4.83;3.00;;;11.10;99.90;;;;;;5051596;28;20435;-70
2022/11/27 15:28:42;;;;;;;6.57;3.80;;;11.10;99.90;;;;;;5052485;28;20503;-73
2022/11/27 15:31:25;;;;;;;4.17;2.93;;;11.20;99.90;;;;;;5052580;28;20425;-72
2022/11/27 15:34:05;;;;;;;4.73;3.10;;;11.10;99.90;;;;;;5056754;28;20477;-73
2022/11/27 15:36:36;;;;;;;4.63;3.47;;;11.10;99.90;;;;;;5052717;28;20563;-71
2022/11/27 15:39:21;;;;;;;6.40;4.30;;;11.10;99.90;;;;;;5051970;28;20762;-72
2022/11/27 15:41:51;;;;;;;22.73;9.20;;;11.10;99.90;;;;;;5052624;28;20441;-76
2022/11/27 15:44:17;;;;;;;16.20;8.20;;;11.00;99.90;;;;;;5052359;28;20432;-78
2022/11/27 15:46:43;;;;;;;5.63;4.30;;;10.80;99.90;;;;;;5052506;28;20426;-75
2022/11/27 15:49:12;;;;;;;4.93;4.00;;;10.70;99.90;;;;;;5052311;28;20175;-74
2022/11/27 15:51:38;;;;;;;4.10;3.50;;;10.70;99.90;;;;;;5052322;28;20187;-76
2022/11/27 15:54:04;;;;;;;4.70;3.30;;;10.70;99.90;;;;;;5052111;28;20433;-78
2022/11/27 15:56:29;;;;;;;6.43;3.80;;;10.70;99.90;;;;;;5052184;28;20171;-74
2022/11/27 15:58:55;;;;;;;9.77;4.80;;;10.60;99.90;;;;;;5052381;28;20179;-76
2022/11/27 16:01:20;;;;;;;3.93;3.40;;;10.60;99.90;;;;;;5052099;28;20549;-79
2022/11/27 16:03:46;;;;;;;3.80;3.50;;;10.60;99.90;;;;;;5052199;28;20251;-77
2022/11/27 16:06:11;;;;;;;5.60;4.23;;;10.50;99.90;;;;;;5051911;28;20638;-75
2022/11/27 16:08:37;;;;;;;9.87;4.27;;;10.50;99.90;;;;;;5051806;28;20185;-73
2022/11/27 16:11:06;;;;;;;6.77;4.83;;;10.60;99.90;;;;;;5052179;28;20194;-75
2022/11/27 16:13:32;;;;;;;6.10;3.70;;;10.60;99.90;;;;;;5051945;28;20261;-73
2022/11/27 16:16:06;;;;;;;9.23;3.50;;;10.60;99.90;;;;;;5051935;28;20422;-71
2022/11/27 16:18:33;;;;;;;6.50;3.77;;;10.60;99.90;;;;;;5051908;28;20421;-72
2022/11/27 16:21:10;;;;;;;6.70;4.83;;;10.50;99.90;;;;;;5050276;28;20964;-70
2022/11/27 16:23:37;;;;;;;6.80;4.70;;;10.30;99.90;;;;;;5051973;28;20424;-71
2022/11/27 16:26:04;;;;;;;7.00;4.33;;;10.20;99.90;;;;;;5052026;28;20430;-71
2022/11/27 16:28:31;;;;;;;4.97;4.00;;;10.20;99.90;;;;;;5051701;28;20422;-70
2022/11/27 16:30:58;;;;;;;6.23;3.90;;;10.20;99.90;;;;;;5051922;28;20432;-72
2022/11/27 16:33:25;;;;;;;8.03;4.60;;;10.30;99.90;;;;;;5051794;28;20890;-73
2022/11/27 16:35:51;;;;;;;5.00;4.50;;;10.20;99.90;;;;;;5051757;28;20437;-72
2022/11/27 16:38:17;;;;;;;4.77;3.50;;;10.20;99.90;;;;;;5051747;28;20422;-73
2022/11/27 16:40:42;;;;;;;7.40;4.23;;;10.20;99.90;;;;;;5051530;28;20526;-72
2022/11/27 16:43:08;;;;;;;5.13;3.00;;;10.20;99.90;;;;;;5051839;28;20171;-73
2022/11/27 16:45:36;;;;;;;4.57;3.17;;;10.10;99.90;;;;;;5051446;28;20186;-74
2022/11/27 16:48:02;;;;;;;4.50;3.93;;;10.00;99.90;;;;;;5051640;28;20638;-72
2022/11/27 16:50:29;;;;;;;7.33;2.97;;;10.00;99.90;;;;;;5051831;28;20528;-71
2022/11/27 16:52:55;;;;;;;4.60;3.67;;;10.20;99.90;;;;;;5051248;28;20167;-72
2022/11/27 16:55:21;;;;;;;5.00;3.27;;;10.10;99.90;;;;;;5051650;28;20788;-73
2022/11/27 16:57:47;;;;;;;8.47;3.83;;;10.00;99.90;;;;;;5051675;28;20468;-72
2022/11/27 17:00:13;;;;;;;5.90;4.13;;;10.00;99.90;;;;;;5051651;28;20574;-72
2022/11/27 17:02:39;;;;;;;3.50;3.20;;;10.00;99.90;;;;;;5051130;28;20263;-72
2022/11/27 17:05:04;;;;;;;3.50;3.20;;;10.00;99.90;;;;;;5051513;28;20468;-70
2022/11/27 17:07:30;;;;;;;5.97;3.77;;;10.00;99.90;;;;;;5054255;28;20174;-71
2022/11/27 17:09:56;;;;;;;5.30;4.30;;;9.90;99.90;;;;;;5055104;28;20456;-71